Time;durP1;ratioP1;P1;durP2;ratioP2;P2;SDS_P1;SDS_P2;PMS_P1;PMS_P2;Temp;Humidity;BMP_temperature;BMP_pressure;BME280_temperature;BME280_humidity;BME280_pressure;Samples;Min_cycle;Max_cycle;Signal;HPM_P1;HPM_P2
2022/12/13 00:00:17;;;;;;;24.43;21.93;;;-1.10;99.90;;;;;;5100510;28;20191;-58
2022/12/13 00:02:44;;;;;;;22.25;20.15;;;-1.10;99.90;;;;;;5098655;28;20516;-59
2022/12/13 00:05:10;;;;;;;24.15;21.85;;;-1.10;99.90;;;;;;5100720;28;20179;-56
2022/12/13 00:07:36;;;;;;;24.88;22.35;;;-1.10;99.90;;;;;;5100276;28;20720;-58
2022/12/13 00:10:03;;;;;;;24.23;21.87;;;-1.10;99.90;;;;;;5101035;28;20254;-55
2022/12/13 00:12:28;;;;;;;23.90;21.60;;;-1.10;99.90;;;;;;5099333;28;20437;-58
2022/12/13 00:14:54;;;;;;;23.97;21.70;;;-1.20;99.90;;;;;;5100123;28;20677;-56
2022/12/13 00:17:20;;;;;;;23.60;21.30;;;-1.10;99.90;;;;;;5099663;28;20238;-57
2022/12/13 00:19:46;;;;;;;23.50;21.23;;;-1.10;99.90;;;;;;5098694;28;20216;-55
2022/12/13 00:22:12;;;;;;;23.23;21.02;;;-1.10;99.90;;;;;;5100015;28;20196;-55
2022/12/13 00:24:38;;;;;;;24.45;21.92;;;-1.10;99.90;;;;;;5099029;28;20191;-57
2022/12/13 00:27:04;;;;;;;27.60;21.50;;;-1.10;99.90;;;;;;5099462;28;20815;-55
2022/12/13 00:29:30;;;;;;;25.60;22.73;;;-1.10;99.90;;;;;;5100083;28;20187;-56
2022/12/13 00:31:55;;;;;;;26.10;23.40;;;-1.10;99.90;;;;;;5099941;28;20198;-56
2022/12/13 00:34:21;;;;;;;24.67;22.27;;;-1.10;99.90;;;;;;5099999;28;20184;-57
2022/12/13 00:36:47;;;;;;;24.43;22.03;;;-1.10;99.90;;;;;;5098710;28;20208;-54
2022/12/13 00:39:15;;;;;;;24.30;22.00;;;-1.10;99.90;;;;;;5100236;28;20445;-56
2022/12/13 00:41:42;;;;;;;23.27;21.17;;;-1.10;99.90;;;;;;5099699;28;20431;-57
2022/12/13 00:44:11;;;;;;;24.50;22.10;;;-1.20;99.90;;;;;;5100157;28;20624;-58
2022/12/13 00:46:37;;;;;;;23.73;21.38;;;-1.10;99.90;;;;;;5097710;28;20604;-58
2022/12/13 00:49:04;;;;;;;23.40;21.05;;;-1.10;99.90;;;;;;5099897;28;21203;-58
2022/12/13 00:51:31;;;;;;;24.02;21.80;;;-1.20;99.90;;;;;;5098871;28;20216;-58
2022/12/13 00:53:58;;;;;;;23.02;20.80;;;-1.20;99.90;;;;;;5098962;28;20188;-58
2022/12/13 00:56:27;;;;;;;23.75;21.65;;;-1.20;99.90;;;;;;5099271;28;20184;-57
2022/12/13 00:58:53;;;;;;;21.98;19.95;;;-1.10;99.90;;;;;;5099551;28;20229;-58
2022/12/13 01:01:25;;;;;;;22.35;20.25;;;-1.20;99.90;;;;;;5099159;28;20320;-57
2022/12/13 01:03:53;;;;;;;23.30;21.17;;;-1.30;99.90;;;;;;5099484;28;20910;-58
2022/12/13 01:06:34;;;;;;;23.60;21.30;;;-1.30;99.90;;;;;;5099996;28;20345;-58
2022/12/13 01:09:01;;;;;;;23.13;21.02;;;-1.30;99.90;;;;;;5102564;28;20634;-57
2022/12/13 01:11:27;;;;;;;23.20;21.00;;;-1.30;99.90;;;;;;5101738;28;20219;-58
2022/12/13 01:13:53;;;;;;;23.43;21.23;;;-1.30;99.90;;;;;;5103632;28;20279;-55
2022/12/13 01:16:18;;;;;;;23.10;20.90;;;-1.30;99.90;;;;;;5100711;28;20548;-57
2022/12/13 01:18:44;;;;;;;23.17;21.07;;;-1.30;99.90;;;;;;5104338;28;21100;-57
2022/12/13 01:21:13;;;;;;;21.77;19.63;;;-1.30;99.90;;;;;;5102005;28;20560;-56
2022/12/13 01:23:40;;;;;;;22.77;20.58;;;-1.30;99.90;;;;;;5102642;28;21277;-55
2022/12/13 01:26:15;;;;;;;22.38;20.23;;;-1.20;99.90;;;;;;5102901;28;20796;-57
2022/12/13 01:28:42;;;;;;;23.45;21.15;;;-1.30;99.90;;;;;;5102337;28;20183;-56
2022/12/13 01:31:13;;;;;;;23.00;20.75;;;-1.20;99.90;;;;;;5101886;28;20183;-57
2022/12/13 01:33:39;;;;;;;23.02;20.77;;;-1.20;99.90;;;;;;5102651;28;20187;-56
2022/12/13 01:36:08;;;;;;;22.73;20.63;;;-1.30;99.90;;;;;;5102876;28;20211;-59
2022/12/13 01:38:35;;;;;;;23.17;20.98;;;-1.20;99.90;;;;;;5102616;28;20232;-55
2022/12/13 01:41:00;;;;;;;23.83;21.52;;;-1.20;99.90;;;;;;5102005;28;20591;-58
2022/12/13 01:43:51;;;;;;;23.50;21.20;;;-1.20;99.90;;;;;;5101271;28;20213;-57
2022/12/13 01:46:17;;;;;;;22.00;20.05;;;-1.30;99.90;;;;;;5101150;28;20437;-57
2022/12/13 01:48:54;;;;;;;21.42;19.50;;;-1.20;99.90;;;;;;5101343;28;20282;-56
2022/12/13 01:51:28;;;;;;;21.70;19.80;;;-1.20;99.90;;;;;;5101120;27;20185;-58
2022/12/13 01:53:58;;;;;;;21.45;19.52;;;-1.20;99.90;;;;;;5101253;28;20548;-58
2022/12/13 01:56:32;;;;;;;22.83;20.70;;;-1.30;99.90;;;;;;5100995;28;20218;-58
2022/12/13 01:58:59;;;;;;;22.00;20.00;;;-1.30;99.90;;;;;;5101472;28;20226;-59
2022/12/13 02:01:25;;;;;;;22.35;20.35;;;-1.40;99.90;;;;;;5100817;28;21119;-58
2022/12/13 02:03:51;;;;;;;21.10;19.10;;;-1.40;99.90;;;;;;5101412;28;20172;-61
2022/12/13 02:06:38;;;;;;;21.80;19.90;;;-1.30;99.90;;;;;;5101386;28;20180;-57
2022/12/13 02:09:05;;;;;;;22.63;20.52;;;-1.40;99.90;;;;;;5101060;28;20183;-47
2022/12/13 02:11:34;;;;;;;21.65;19.60;;;-1.40;99.90;;;;;;5101096;28;20585;-59
2022/12/13 02:13:59;;;;;;;22.45;20.25;;;-1.40;99.90;;;;;;5101936;28;20534;-57
2022/12/13 02:16:53;;;;;;;21.70;19.80;;;-1.40;99.90;;;;;;5101293;28;20291;-57
2022/12/13 02:19:42;;;;;;;21.23;19.23;;;-1.50;99.90;;;;;;5099323;28;20206;-57
2022/12/13 02:22:22;;;;;;;21.77;19.63;;;-1.50;99.90;;;;;;5100581;28;20191;-58
2022/12/13 02:24:47;;;;;;;22.85;20.65;;;-1.50;99.90;;;;;;5100726;28;20574;-57
2022/12/13 02:27:44;;;;;;;21.90;19.90;;;-1.50;99.90;;;;;;5100086;28;20176;-54
2022/12/13 02:30:19;;;;;;;22.25;20.15;;;-1.60;99.90;;;;;;5101705;28;20350;-54
2022/12/13 02:33:09;;;;;;;22.05;20.05;;;-1.50;99.90;;;;;;5101488;28;20183;-57
2022/12/13 02:36:13;;;;;;;22.00;20.00;;;-1.50;99.90;;;;;;5100617;28;20176;-57
2022/12/13 02:38:57;;;;;;;24.13;21.85;;;-1.50;99.90;;;;;;5101300;28;20202;-57
2022/12/13 02:41:40;;;;;;;22.35;20.15;;;-1.50;99.90;;;;;;5099536;28;20180;-59
2022/12/13 02:44:25;;;;;;;21.08;19.17;;;-1.50;99.90;;;;;;5100772;28;20649;-56
2022/12/13 02:47:07;;;;;;;22.48;20.35;;;-1.50;99.90;;;;;;5100133;28;20259;-51
2022/12/13 02:49:39;;;;;;;22.45;20.25;;;-1.50;99.90;;;;;;5100821;28;20194;-57
2022/12/13 02:52:07;;;;;;;23.40;20.98;;;-1.50;99.90;;;;;;5100427;28;20214;-57
2022/12/13 02:54:33;;;;;;;21.98;19.92;;;-1.40;99.90;;;;;;5100185;28;20599;-57
2022/12/13 02:56:59;;;;;;;23.30;21.10;;;-1.50;99.90;;;;;;5100859;28;20215;-57
2022/12/13 02:59:30;;;;;;;23.30;21.05;;;-1.50;99.90;;;;;;5100752;28;20759;-57
2022/12/13 03:02:14;;;;;;;22.80;20.65;;;-1.60;99.90;;;;;;5101041;28;20653;-57
2022/12/13 03:08:00;;;;;;;21.60;19.70;;;-1.60;99.90;;;;;;5100928;28;20183;-57
2022/12/13 03:10:36;;;;;;;22.67;20.52;;;-1.60;99.90;;;;;;5099693;28;20180;-59
2022/12/13 03:16:02;;;;;;;21.95;19.83;;;-1.80;99.90;;;;;;5099662;28;20284;-58
2022/12/13 03:18:31;;;;;;;22.65;20.45;;;-1.70;99.90;;;;;;5099265;28;20210;-54
2022/12/13 03:21:03;;;;;;;22.50;20.50;;;-1.70;99.90;;;;;;5099693;28;20556;-53
2022/12/13 03:23:29;;;;;;;22.90;20.70;;;-1.70;99.90;;;;;;5099765;28;20184;-55
2022/12/13 03:26:03;;;;;;;23.83;21.40;;;-1.70;99.90;;;;;;5100099;28;20171;-54
2022/12/13 03:28:29;;;;;;;23.00;20.70;;;-1.80;99.90;;;;;;5098951;28;20192;-58
2022/12/13 03:30:55;;;;;;;21.67;19.67;;;-1.70;99.90;;;;;;5099226;28;20969;-53
2022/12/13 03:33:21;;;;;;;22.60;20.40;;;-1.80;99.90;;;;;;5099653;28;20316;-56
2022/12/13 03:35:47;;;;;;;21.98;19.90;;;-1.70;99.90;;;;;;5099541;28;20313;-56
2022/12/13 03:38:15;;;;;;;22.65;20.55;;;-1.80;99.90;;;;;;5098564;28;20207;-52
2022/12/13 03:40:41;;;;;;;22.30;20.15;;;-1.80;99.90;;;;;;5099177;28;20510;-56
2022/12/13 03:43:06;;;;;;;22.47;20.27;;;-1.80;99.90;;;;;;5098866;28;20183;-47
2022/12/13 03:45:32;;;;;;;23.10;20.83;;;-1.90;99.90;;;;;;5098137;28;20457;-55
2022/12/13 03:47:58;;;;;;;22.73;20.63;;;-1.90;99.90;;;;;;5098953;28;20706;-51
2022/12/13 03:50:23;;;;;;;22.17;20.03;;;-1.90;99.90;;;;;;5100237;28;20183;-49
2022/12/13 03:52:52;;;;;;;22.73;20.60;;;-1.80;99.90;;;;;;5098817;28;20638;-47
2022/12/13 03:55:18;;;;;;;22.75;20.35;;;-1.90;99.90;;;;;;5098889;28;20184;-49
2022/12/13 03:57:44;;;;;;;22.80;20.80;;;-1.90;99.90;;;;;;5098959;28;20218;-47
2022/12/13 04:00:10;;;;;;;22.00;19.97;;;-1.90;99.90;;;;;;5099475;28;20499;-50
2022/12/13 04:02:36;;;;;;;22.23;20.13;;;-1.90;99.90;;;;;;5099145;28;20981;-50
2022/12/13 04:05:01;;;;;;;22.80;20.60;;;-1.90;99.90;;;;;;5099764;28;20180;-51
2022/12/13 04:07:27;;;;;;;22.63;20.60;;;-2.00;99.90;;;;;;5099649;28;20190;-46
2022/12/13 04:09:52;;;;;;;23.00;20.80;;;-2.10;99.90;;;;;;5100286;28;20184;-47
2022/12/13 04:15:02;;;;;;;23.05;20.23;;;-2.20;99.90;;;;;;5098894;28;20307;-48
2022/12/13 04:17:28;;;;;;;23.50;21.27;;;-2.30;99.90;;;;;;5098242;28;20674;-49
2022/12/13 04:19:54;;;;;;;23.73;21.40;;;-2.30;99.90;;;;;;5098587;28;20882;-50
2022/12/13 04:22:19;;;;;;;22.57;20.37;;;-2.40;99.90;;;;;;5098500;28;20629;-47
2022/12/13 04:24:45;;;;;;;23.50;21.20;;;-2.50;99.90;;;;;;5099432;28;20171;-47
2022/12/13 04:27:10;;;;;;;22.00;19.90;;;-2.60;99.90;;;;;;5098961;28;20244;-52
2022/12/13 04:29:36;;;;;;;22.87;20.67;;;-2.80;99.90;;;;;;5098487;28;20223;-48
2022/12/13 04:32:03;;;;;;;22.13;19.90;;;-2.90;99.90;;;;;;5097619;28;20195;-51
2022/12/13 04:34:29;;;;;;;23.77;21.23;;;-3.00;99.90;;;;;;5097900;28;20188;-49
2022/12/13 04:36:54;;;;;;;23.13;20.67;;;-3.10;99.90;;;;;;5099055;28;20549;-46
2022/12/13 04:39:20;;;;;;;22.40;20.10;;;-3.20;99.90;;;;;;5098731;28;20931;-48
2022/12/13 04:41:46;;;;;;;23.10;20.90;;;-3.20;99.90;;;;;;5101405;28;20595;-45
2022/12/13 04:44:11;;;;;;;22.23;19.93;;;-3.40;99.90;;;;;;5103075;28;20552;-47
2022/12/13 04:46:37;;;;;;;25.43;22.73;;;-3.40;99.90;;;;;;5102965;28;20187;-55
2022/12/13 04:49:03;;;;;;;24.60;22.00;;;-3.50;99.90;;;;;;5103131;28;20184;-56
2022/12/13 04:51:28;;;;;;;23.80;21.20;;;-3.50;99.90;;;;;;5102208;28;20509;-55
2022/12/13 04:53:54;;;;;;;27.80;22.90;;;-3.50;99.90;;;;;;5103719;28;21293;-56
2022/12/13 04:56:20;;;;;;;24.57;21.97;;;-3.50;99.90;;;;;;5102381;28;20218;-56
2022/12/13 04:58:45;;;;;;;23.47;21.17;;;-3.50;99.90;;;;;;5103607;28;20207;-58
2022/12/13 05:01:11;;;;;;;22.87;20.37;;;-3.60;99.90;;;;;;5102598;28;20180;-56
2022/12/13 05:03:38;;;;;;;23.70;21.20;;;-3.50;99.90;;;;;;5102233;28;20211;-57
2022/12/13 05:06:09;;;;;;;22.55;20.17;;;-3.60;99.90;;;;;;5101702;28;20943;-59
2022/12/13 05:08:36;;;;;;;22.58;19.30;;;-3.60;99.90;;;;;;5101620;28;20207;-57
2022/12/13 05:11:03;;;;;;;24.85;20.52;;;-3.60;99.90;;;;;;5102704;28;20212;-55
2022/12/13 05:13:28;;;;;;;23.13;20.70;;;-3.60;99.90;;;;;;5102617;27;20965;-53
2022/12/13 05:15:56;;;;;;;24.23;21.63;;;-3.70;99.90;;;;;;5101293;28;20188;-54
2022/12/13 05:18:22;;;;;;;25.98;22.08;;;-3.70;99.90;;;;;;5099752;28;20224;-56
2022/12/13 05:20:49;;;;;;;24.43;21.80;;;-3.80;99.90;;;;;;5103122;28;20192;-56
2022/12/13 05:23:16;;;;;;;23.77;21.38;;;-3.80;99.90;;;;;;5102486;28;20182;-57
2022/12/13 05:25:41;;;;;;;24.15;21.75;;;-3.80;99.90;;;;;;5101987;28;20236;-56
2022/12/13 05:28:07;;;;;;;24.57;20.80;;;-3.90;99.90;;;;;;5102926;28;20196;-56
2022/12/13 05:30:33;;;;;;;23.83;21.33;;;-4.00;99.90;;;;;;5103023;28;20556;-56
2022/12/13 05:32:58;;;;;;;23.70;21.23;;;-4.10;99.90;;;;;;5103631;28;20195;-56
2022/12/13 05:35:24;;;;;;;24.67;20.00;;;-4.10;99.90;;;;;;5102259;28;20184;-59
2022/12/13 05:37:51;;;;;;;24.00;21.40;;;-4.30;99.90;;;;;;5102998;28;20203;-55
2022/12/13 05:40:16;;;;;;;22.77;20.63;;;-4.40;99.90;;;;;;5102002;28;20756;-54
2022/12/13 05:42:42;;;;;;;24.07;21.50;;;-4.40;99.90;;;;;;5102209;28;20183;-57
2022/12/13 05:45:08;;;;;;;25.20;21.90;;;-4.50;99.90;;;;;;5101471;28;20184;-53
2022/12/13 05:47:34;;;;;;;24.27;20.92;;;-4.50;99.90;;;;;;5103151;27;20217;-57
2022/12/13 05:50:00;;;;;;;21.67;19.37;;;-4.60;99.90;;;;;;5103889;27;20319;-56
2022/12/13 05:52:25;;;;;;;24.83;21.40;;;-4.70;99.90;;;;;;5102513;28;20248;-58
2022/12/13 05:54:55;;;;;;;25.33;21.47;;;-4.80;99.90;;;;;;5102590;28;20543;-58
2022/12/13 05:57:21;;;;;;;25.33;21.38;;;-4.80;99.90;;;;;;5102368;28;20745;-58
2022/12/13 05:59:47;;;;;;;26.67;21.88;;;-4.80;99.90;;;;;;5101966;28;20828;-56
2022/12/13 06:02:13;;;;;;;24.90;20.80;;;-4.90;99.90;;;;;;5102050;28;20184;-55
2022/12/13 06:04:38;;;;;;;22.17;19.90;;;-4.90;99.90;;;;;;5101743;28;20763;-54
2022/12/13 06:07:04;;;;;;;26.10;20.83;;;-4.90;99.90;;;;;;5101803;28;20195;-55
2022/12/13 06:09:29;;;;;;;26.90;22.03;;;-4.90;99.90;;;;;;5101525;28;20191;-54
2022/12/13 06:11:55;;;;;;;25.43;21.17;;;-5.00;99.90;;;;;;5102723;28;20196;-53
2022/12/13 06:14:21;;;;;;;23.57;21.07;;;-5.10;99.90;;;;;;5102222;28;20191;-55
2022/12/13 06:16:46;;;;;;;25.50;21.43;;;-5.10;99.90;;;;;;5099654;28;20469;-53
2022/12/13 06:19:12;;;;;;;27.27;22.13;;;-5.20;99.90;;;;;;5101897;28;20180;-54
2022/12/13 06:21:37;;;;;;;24.17;21.57;;;-5.30;99.90;;;;;;5102176;28;20196;-47
2022/12/13 06:24:04;;;;;;;24.20;21.70;;;-5.30;99.90;;;;;;5102050;28;20191;-48
2022/12/13 06:26:30;;;;;;;25.27;22.67;;;-5.30;99.90;;;;;;5101464;28;20175;-46
2022/12/13 06:28:56;;;;;;;25.57;22.13;;;-5.40;99.90;;;;;;5101347;28;20237;-44
2022/12/13 06:31:21;;;;;;;24.73;21.60;;;-5.40;99.90;;;;;;5101641;28;20480;-46
2022/12/13 06:33:47;;;;;;;26.63;22.50;;;-5.50;99.90;;;;;;5101298;28;20220;-52
2022/12/13 06:36:12;;;;;;;25.10;22.13;;;-5.50;99.90;;;;;;5101872;28;20586;-50
2022/12/13 06:38:38;;;;;;;25.97;23.17;;;-5.60;99.90;;;;;;5100757;28;20200;-47
2022/12/13 06:41:14;;;;;;;26.77;22.40;;;-5.60;99.90;;;;;;5101638;28;20442;-52
2022/12/13 06:43:47;;;;;;;22.95;20.50;;;-5.70;99.90;;;;;;5101785;28;20274;-46
2022/12/13 06:46:13;;;;;;;24.88;22.05;;;-5.70;99.90;;;;;;5101486;28;20225;-45
2022/12/13 06:48:39;;;;;;;26.67;22.35;;;-5.80;99.90;;;;;;5101623;28;20183;-48
2022/12/13 06:51:06;;;;;;;27.27;23.20;;;-5.80;99.90;;;;;;5100689;28;20515;-48
2022/12/13 06:53:34;;;;;;;26.98;24.10;;;-5.80;99.90;;;;;;5101458;28;20578;-50
2022/12/13 06:56:09;;;;;;;25.60;22.15;;;-5.80;99.90;;;;;;5101049;28;20198;-48
2022/12/13 06:58:35;;;;;;;29.98;23.00;;;-5.80;99.90;;;;;;5100744;28;20431;-47
2022/12/13 07:01:05;;;;;;;26.95;23.05;;;-5.90;99.90;;;;;;5100862;28;20191;-47
2022/12/13 07:03:31;;;;;;;27.58;22.25;;;-5.80;99.90;;;;;;5100032;28;20180;-49
2022/12/13 07:06:04;;;;;;;28.80;23.27;;;-5.90;99.90;;;;;;5100981;28;20180;-47
2022/12/13 07:08:30;;;;;;;27.48;23.00;;;-6.00;99.90;;;;;;5100260;28;20192;-52
2022/12/13 07:10:56;;;;;;;28.15;23.10;;;-6.00;99.90;;;;;;5100926;28;20188;-46
2022/12/13 07:13:22;;;;;;;28.52;23.05;;;-6.00;99.90;;;;;;5100942;28;20199;-52
2022/12/13 07:15:49;;;;;;;29.37;24.17;;;-6.00;99.90;;;;;;5100846;28;20630;-48
2022/12/13 07:18:14;;;;;;;27.30;23.35;;;-6.10;99.90;;;;;;5100928;28;20457;-56
2022/12/13 07:20:41;;;;;;;27.10;22.87;;;-6.10;99.90;;;;;;5100769;28;20362;-57
2022/12/13 07:23:07;;;;;;;25.30;22.60;;;-6.10;99.90;;;;;;5100750;28;20414;-57
2022/12/13 07:25:32;;;;;;;28.57;22.83;;;-6.10;99.90;;;;;;5100769;28;20577;-55
2022/12/13 07:28:04;;;;;;;23.83;21.00;;;-6.10;99.90;;;;;;5101319;28;20933;-57
2022/12/13 07:30:37;;;;;;;27.05;22.83;;;-6.10;99.90;;;;;;5100791;28;20191;-54
2022/12/13 07:33:04;;;;;;;25.55;20.40;;;-6.20;99.90;;;;;;5100626;28;20191;-55
2022/12/13 07:35:31;;;;;;;24.45;21.60;;;-6.20;99.90;;;;;;5099429;28;20180;-51
2022/12/13 07:37:57;;;;;;;26.05;20.45;;;-6.20;99.90;;;;;;5100422;28;20260;-53
2022/12/13 07:40:22;;;;;;;28.23;23.27;;;-6.20;99.90;;;;;;5100498;28;20176;-56
2022/12/13 07:42:53;;;;;;;22.13;18.60;;;-6.10;99.90;;;;;;5100144;28;20822;-54
2022/12/13 07:45:19;;;;;;;28.30;22.67;;;-6.10;99.90;;;;;;5100384;28;20180;-52
2022/12/13 07:47:45;;;;;;;26.00;22.48;;;-6.00;99.90;;;;;;5100176;28;20198;-56
2022/12/13 07:50:11;;;;;;;28.10;20.83;;;-6.00;99.90;;;;;;5100409;28;20638;-51
2022/12/13 07:52:37;;;;;;;26.88;21.88;;;-5.90;99.90;;;;;;5100082;28;20924;-57
2022/12/13 07:55:04;;;;;;;28.00;21.00;;;-5.80;99.90;;;;;;5100386;28;20175;-55
2022/12/13 07:57:30;;;;;;;29.00;22.05;;;-5.80;99.90;;;;;;5099609;28;20455;-55
2022/12/13 07:59:57;;;;;;;25.08;21.17;;;-5.80;99.90;;;;;;5099954;28;20676;-57
2022/12/13 08:02:23;;;;;;;25.90;21.13;;;-5.70;99.90;;;;;;5100023;28;20527;-56
2022/12/13 08:04:48;;;;;;;26.73;21.33;;;-5.70;99.90;;;;;;5099626;28;20175;-53
2022/12/13 08:07:14;;;;;;;25.83;21.73;;;-5.60;99.90;;;;;;5099217;28;20184;-56
2022/12/13 08:09:39;;;;;;;26.57;22.00;;;-5.70;99.90;;;;;;5100369;28;20537;-55
2022/12/13 08:12:05;;;;;;;28.00;22.87;;;-5.70;99.90;;;;;;5100214;28;20199;-57
2022/12/13 08:14:31;;;;;;;24.00;21.40;;;-5.60;99.90;;;;;;5100233;28;20189;-53
2022/12/13 08:16:56;;;;;;;29.63;22.43;;;-5.60;99.90;;;;;;5097575;28;20257;-55
2022/12/13 08:19:22;;;;;;;25.30;22.50;;;-5.50;99.90;;;;;;5099399;28;20977;-54
2022/12/13 08:21:52;;;;;;;26.65;22.45;;;-5.40;99.90;;;;;;5099634;28;20188;-52
2022/12/13 08:24:18;;;;;;;29.30;23.17;;;-5.40;99.90;;;;;;5099895;28;20595;-54
2022/12/13 08:26:44;;;;;;;28.42;22.70;;;-5.30;99.90;;;;;;5099726;28;20276;-56
2022/12/13 08:29:11;;;;;;;28.23;22.87;;;-5.20;99.90;;;;;;5100119;28;20183;-55
2022/12/13 08:31:38;;;;;;;22.92;20.50;;;-5.10;99.90;;;;;;5099438;28;20424;-57
2022/12/13 08:34:03;;;;;;;27.77;21.77;;;-4.80;99.90;;;;;;5099547;28;20222;-45
2022/12/13 08:36:29;;;;;;;26.00;23.20;;;-4.30;99.90;;;;;;5099332;28;20266;-45
2022/12/13 08:38:55;;;;;;;27.70;22.17;;;-3.90;99.90;;;;;;5099707;28;20534;-48
2022/12/13 08:41:21;;;;;;;26.15;23.45;;;-3.50;99.90;;;;;;5100000;28;20217;-56
2022/12/13 08:43:47;;;;;;;25.50;21.83;;;-3.00;99.90;;;;;;5099643;28;20650;-55
2022/12/13 08:46:13;;;;;;;22.23;19.83;;;-2.50;99.90;;;;;;5099193;28;20179;-55
2022/12/13 08:48:39;;;;;;;22.37;19.97;;;-2.30;99.90;;;;;;5099434;28;20650;-55
2022/12/13 08:51:07;;;;;;;22.40;20.20;;;-2.10;99.90;;;;;;5099266;28;20930;-53
2022/12/13 08:53:33;;;;;;;21.92;19.65;;;-2.30;99.90;;;;;;5099261;28;20688;-60
2022/12/13 08:56:04;;;;;;;22.50;20.20;;;-2.40;99.90;;;;;;5099712;28;20199;-56
2022/12/13 08:58:31;;;;;;;23.63;21.13;;;-2.30;99.90;;;;;;5099159;28;20218;-56
2022/12/13 09:00:56;;;;;;;23.85;20.88;;;-2.30;99.90;;;;;;5099504;28;20218;-54
2022/12/13 09:03:22;;;;;;;26.83;21.70;;;-2.10;99.90;;;;;;5099229;28;20179;-51
2022/12/13 09:05:48;;;;;;;25.27;21.90;;;-1.70;99.90;;;;;;5099188;28;20585;-54
2022/12/13 09:08:14;;;;;;;23.07;20.80;;;-1.10;99.90;;;;;;5099311;28;21010;-56
2022/12/13 09:10:40;;;;;;;24.40;21.97;;;-0.50;99.90;;;;;;5099218;28;20229;-56
2022/12/13 09:13:05;;;;;;;24.73;22.40;;;0.10;99.40;;;;;;5099559;28;21204;-55
2022/12/13 09:15:32;;;;;;;23.67;21.47;;;0.10;95.90;;;;;;5097599;28;20542;-57
2022/12/13 09:17:58;;;;;;;22.10;20.05;;;0.40;94.70;;;;;;5099210;28;20660;-57
2022/12/13 09:20:24;;;;;;;22.40;20.30;;;0.60;94.70;;;;;;5099545;28;20205;-47
2022/12/13 09:22:50;;;;;;;22.40;20.45;;;1.10;93.60;;;;;;5098761;28;20887;-51
2022/12/13 09:25:15;;;;;;;23.63;21.45;;;1.40;91.80;;;;;;5099510;28;20204;-59
2022/12/13 09:27:41;;;;;;;23.30;21.20;;;1.60;88.30;;;;;;5101223;28;20723;-62
2022/12/13 09:30:11;;;;;;;23.33;21.17;;;1.70;86.30;;;;;;5103007;28;20265;-62
2022/12/13 09:32:38;;;;;;;24.00;21.88;;;1.40;84.90;;;;;;5102398;28;20187;-64
2022/12/13 09:35:04;;;;;;;24.65;22.42;;;1.20;86.80;;;;;;5102169;28;20228;-61
2022/12/13 09:37:30;;;;;;;23.05;20.90;;;1.30;87.80;;;;;;5102747;28;20463;-61
2022/12/13 09:39:56;;;;;;;23.23;21.25;;;1.50;86.30;;;;;;5102512;28;20198;-61
2022/12/13 09:42:26;;;;;;;22.80;20.77;;;1.50;84.60;;;;;;5102007;28;20187;-63
2022/12/13 09:44:58;;;;;;;22.33;20.15;;;1.60;83.80;;;;;;5103072;28;20183;-62
2022/12/13 09:47:36;;;;;;;23.73;21.73;;;1.70;82.60;;;;;;5102789;27;20554;-56
2022/12/13 09:50:08;;;;;;;21.90;19.95;;;2.10;82.00;;;;;;5102308;28;20197;-62
2022/12/13 09:52:39;;;;;;;21.17;19.27;;;1.80;76.90;;;;;;5102689;28;20187;-55
2022/12/13 09:55:35;;;;;;;21.98;20.05;;;1.60;77.00;;;;;;5102317;27;20571;-56
2022/12/13 09:58:06;;;;;;;21.80;19.77;;;1.60;79.20;;;;;;5093312;28;20215;-54
2022/12/13 10:00:34;;;;;;;22.13;20.23;;;1.60;80.30;;;;;;5101923;28;20244;-51
2022/12/13 10:03:01;;;;;;;21.08;19.17;;;1.60;78.50;;;;;;5102581;28;20264;-54
2022/12/13 10:05:34;;;;;;;21.98;19.98;;;1.50;78.10;;;;;;5101705;28;20183;-50
2022/12/13 10:08:10;;;;;;;22.35;20.25;;;1.90;78.90;;;;;;5102270;28;20186;-53
2022/12/13 10:10:37;;;;;;;20.50;18.60;;;2.20;77.10;;;;;;5101971;28;20183;-52
2022/12/13 10:13:27;;;;;;;23.13;20.95;;;2.70;76.20;;;;;;5101798;27;20191;-52
2022/12/13 10:16:08;;;;;;;21.25;19.35;;;3.00;73.20;;;;;;5101492;28;20176;-56
2022/12/13 10:18:38;;;;;;;23.02;20.95;;;3.30;73.80;;;;;;5102059;28;20713;-49
2022/12/13 10:21:25;;;;;;;22.63;20.63;;;3.20;70.50;;;;;;5102063;28;20188;-57
2022/12/13 10:23:51;;;;;;;22.40;20.50;;;3.20;70.50;;;;;;5100239;28;20184;-51
2022/12/13 10:26:16;;;;;;;21.40;19.70;;;3.60;69.10;;;;;;5101496;27;20187;-56
2022/12/13 10:28:43;;;;;;;20.80;19.00;;;3.80;66.50;;;;;;5101791;28;20187;-51
2022/12/13 10:31:16;;;;;;;20.10;18.40;;;4.00;64.90;;;;;;5101290;28;20535;-50
2022/12/13 10:33:54;;;;;;;20.40;18.60;;;4.50;62.00;;;;;;5101778;28;20185;-53
2022/12/13 10:36:35;;;;;;;20.38;18.77;;;4.40;59.00;;;;;;5101056;28;20184;-48
2022/12/13 10:39:02;;;;;;;20.83;19.15;;;4.70;58.60;;;;;;5101199;28;20217;-48
2022/12/13 10:41:35;;;;;;;19.40;17.63;;;5.30;57.90;;;;;;5099886;28;20232;-56
2022/12/13 10:44:19;;;;;;;20.90;19.20;;;4.60;55.20;;;;;;5101147;28;20921;-48
2022/12/13 10:46:49;;;;;;;18.83;17.42;;;4.80;56.50;;;;;;5102152;28;20599;-50
2022/12/13 10:49:23;;;;;;;19.67;17.90;;;5.20;55.40;;;;;;5100847;28;20193;-50
2022/12/13 10:51:50;;;;;;;19.10;17.60;;;5.60;55.10;;;;;;5101128;28;20418;-57
2022/12/13 10:54:30;;;;;;;18.70;17.10;;;5.90;54.00;;;;;;5101056;28;20895;-60
2022/12/13 10:56:59;;;;;;;19.73;18.17;;;5.40;54.20;;;;;;5101280;28;20744;-59
2022/12/13 10:59:36;;;;;;;19.35;17.65;;;4.90;53.60;;;;;;5100613;28;20478;-57
2022/12/13 11:02:23;;;;;;;19.30;17.70;;;5.20;57.90;;;;;;5101207;28;20191;-57
2022/12/13 11:04:50;;;;;;;21.00;19.20;;;5.60;56.90;;;;;;5100850;28;20922;-50
2022/12/13 11:07:36;;;;;;;20.17;18.27;;;6.00;53.70;;;;;;5100672;28;20911;-53
2022/12/13 11:10:26;;;;;;;21.40;19.60;;;6.10;52.30;;;;;;5100123;28;20920;-53
2022/12/13 11:13:05;;;;;;;20.40;18.67;;;6.40;50.40;;;;;;5100634;28;20424;-55
2022/12/13 11:15:34;;;;;;;19.57;18.07;;;6.50;49.50;;;;;;5101189;28;20417;-55
2022/12/13 11:18:07;;;;;;;17.87;16.37;;;6.90;48.90;;;;;;5099761;28;20477;-50
2022/12/13 11:20:35;;;;;;;20.43;18.73;;;7.20;48.20;;;;;;5100431;28;20417;-56
2022/12/13 11:23:06;;;;;;;19.47;17.87;;;6.40;48.60;;;;;;5100158;28;20449;-54
2022/12/13 11:25:42;;;;;;;20.00;18.50;;;6.10;50.10;;;;;;5098947;28;20431;-56
2022/12/13 11:28:34;;;;;;;20.83;19.13;;;6.80;50.70;;;;;;5099822;28;20877;-57
2022/12/13 11:31:18;;;;;;;21.00;19.10;;;7.40;48.40;;;;;;5100426;28;20757;-52
2022/12/13 11:33:56;;;;;;;21.43;19.70;;;7.60;48.70;;;;;;5100816;28;21052;-56
2022/12/13 11:36:44;;;;;;;22.80;20.73;;;8.10;46.80;;;;;;5096015;28;20473;-58
2022/12/13 11:39:31;;;;;;;21.70;19.90;;;9.00;46.00;;;;;;5099543;28;20553;-53
2022/12/13 11:42:46;;;;;;;21.57;19.77;;;8.30;45.60;;;;;;5100307;28;20412;-57
2022/12/13 11:45:20;;;;;;;21.17;19.47;;;8.40;45.20;;;;;;5065173;28;20799;-56
2022/12/13 11:48:19;;;;;;;22.80;21.00;;;7.80;45.90;;;;;;5100083;28;20922;-55
2022/12/13 11:50:50;;;;;;;22.50;20.57;;;8.10;45.90;;;;;;5099827;28;20508;-51
2022/12/13 11:53:20;;;;;;;22.33;20.37;;;7.50;47.00;;;;;;5099978;28;21199;-56
2022/12/13 11:56:10;;;;;;;19.87;18.30;;;7.40;48.20;;;;;;5100278;28;20421;-54
2022/12/13 11:58:44;;;;;;;20.00;18.40;;;7.40;46.00;;;;;;5099343;28;20460;-57
2022/12/13 12:01:14;;;;;;;19.37;17.90;;;7.60;47.30;;;;;;5099853;28;20773;-56
2022/12/13 12:03:51;;;;;;;20.80;18.97;;;7.70;46.50;;;;;;5099641;28;20915;-57
2022/12/13 12:06:22;;;;;;;20.40;18.90;;;8.00;46.40;;;;;;5099152;28;20410;-55
2022/12/13 12:08:59;;;;;;;20.80;19.10;;;7.70;46.70;;;;;;5100172;28;20797;-57
2022/12/13 12:11:32;;;;;;;20.40;18.77;;;8.00;47.20;;;;;;5099298;28;20990;-58
2022/12/13 12:14:03;;;;;;;20.80;19.10;;;7.60;46.90;;;;;;5099353;28;20459;-57
2022/12/13 12:16:38;;;;;;;20.53;18.97;;;7.70;48.00;;;;;;5099480;28;20645;-58
2022/12/13 12:19:15;;;;;;;19.10;17.50;;;7.70;46.40;;;;;;5098504;28;20473;-58
2022/12/13 12:22:04;;;;;;;19.23;17.77;;;7.60;45.40;;;;;;5100163;28;20401;-55
2022/12/13 12:24:37;;;;;;;19.93;18.33;;;7.90;46.60;;;;;;5061162;28;20434;-52
2022/12/13 12:27:23;;;;;;;18.87;17.37;;;8.10;46.30;;;;;;5099577;28;20463;-58
2022/12/13 12:29:54;;;;;;;18.30;17.00;;;8.20;46.70;;;;;;5099312;28;20414;-57
2022/12/13 12:32:45;;;;;;;18.13;16.53;;;7.90;46.40;;;;;;5099484;28;20417;-56
2022/12/13 12:35:32;;;;;;;17.83;16.53;;;7.90;46.70;;;;;;5099444;28;20481;-54
2022/12/13 12:38:33;;;;;;;16.87;15.57;;;8.40;47.10;;;;;;5099489;28;20859;-57
2022/12/13 12:41:05;;;;;;;17.37;16.17;;;8.90;44.50;;;;;;5099462;28;20483;-56
2022/12/13 12:43:42;;;;;;;17.57;16.30;;;9.10;43.10;;;;;;5099104;28;20577;-50
2022/12/13 12:46:23;;;;;;;19.20;17.70;;;9.10;43.10;;;;;;5097740;28;20431;-55
2022/12/13 12:49:13;;;;;;;17.93;16.63;;;8.90;43.60;;;;;;5097609;28;20424;-57
2022/12/13 12:52:03;;;;;;;18.53;17.13;;;8.80;43.10;;;;;;5099063;28;21084;-56
2022/12/13 12:55:10;;;;;;;17.77;16.47;;;8.40;43.00;;;;;;5098674;28;20470;-56